createdAt,value
2022-08-05T00:00:46.403Z,3.47
2022-08-05T00:06:04.886Z,3.05
2022-08-05T00:11:24.005Z,3.28
2022-08-05T00:16:35.368Z,3.08
2022-08-05T00:21:38.448Z,3.47
2022-08-05T00:26:50.898Z,2.92
2022-08-05T00:32:13.435Z,3.08
2022-08-05T00:37:16.287Z,3.03
2022-08-05T00:42:37.219Z,3.05
2022-08-05T00:47:56.886Z,3.50
2022-08-05T00:52:59.540Z,3.17
2022-08-05T00:58:01.294Z,3.05
2022-08-05T01:03:03.217Z,3.17
2022-08-05T01:08:31.590Z,3.97
2022-08-05T01:13:59.026Z,3.30
2022-08-05T01:19:14.298Z,3.30
2022-08-05T01:24:33.311Z,2.83
2022-08-05T01:29:40.554Z,3.40
2022-08-05T01:34:48.800Z,3.50
2022-08-05T01:39:52.309Z,3.38
2022-08-05T01:45:02.405Z,3.38
2022-08-05T01:50:08.336Z,3.70
2022-08-05T01:55:20.800Z,3.30
2022-08-05T02:00:30.721Z,3.45
2022-08-05T02:05:36.734Z,3.03
2022-08-05T02:10:44.046Z,3.58
2022-08-05T02:15:54.021Z,3.67
2022-08-05T02:21:05.673Z,3.78
2022-08-05T02:26:10.139Z,3.50
2022-08-05T02:31:21.865Z,3.17
2022-08-05T02:36:24.772Z,4.03
2022-08-05T02:41:36.370Z,3.83
2022-08-05T02:47:00.208Z,3.55
2022-08-05T02:52:04.723Z,4.43
2022-08-05T02:58:10.936Z,4.00
2022-08-05T03:02:40.822Z,3.75
2022-08-05T03:08:01.698Z,3.88
2022-08-05T03:13:16.580Z,4.00
2022-08-05T03:18:18.617Z,3.50
2022-08-05T03:23:26.918Z,3.70
2022-08-05T03:28:31.679Z,4.00
2022-08-05T03:33:51.301Z,4.15
2022-08-05T03:38:54.944Z,3.78
2022-08-05T03:44:08.633Z,4.15
2022-08-05T03:49:13.110Z,4.80
2022-08-05T03:56:03.862Z,4.63
2022-08-05T04:00:09.239Z,4.55
2022-08-05T04:05:17.925Z,4.60
2022-08-05T04:10:20.656Z,4.75
2022-08-05T04:15:24.418Z,5.95
2022-08-05T04:20:26.293Z,5.07
2022-08-05T04:25:56.518Z,6.43
2022-08-05T04:30:49.731Z,6.65
2022-08-05T04:36:15.558Z,7.45
2022-08-05T04:41:13.195Z,6.97
2022-08-05T04:46:28.491Z,6.88
2022-08-05T04:51:30.740Z,5.80
2022-08-05T04:56:36.762Z,5.50
2022-08-05T05:02:08.196Z,6.43
2022-08-05T05:07:00.357Z,4.97
2022-08-05T05:12:04.439Z,5.45
2022-08-05T05:17:09.386Z,4.57
2022-08-05T05:22:23.406Z,4.68
2022-08-05T05:27:45.198Z,4.18
2022-08-05T05:32:50.347Z,4.32
2022-08-05T05:37:59.661Z,4.00
2022-08-05T05:43:02.403Z,4.72
2022-08-05T05:48:08.060Z,4.72
2022-08-05T05:53:21.164Z,4.80
2022-08-05T05:58:31.491Z,4.78
2022-08-05T06:03:53.610Z,4.30
2022-08-05T06:08:55.828Z,4.82
2022-08-05T06:13:57.582Z,4.13
2022-08-05T06:19:05.960Z,4.65
2022-08-05T06:24:11.535Z,3.90
2022-08-05T06:29:25.083Z,4.30
2022-08-05T06:34:35.940Z,3.53
2022-08-05T06:39:39.578Z,3.08
2022-08-05T06:44:43.423Z,3.97
2022-08-05T06:50:00.619Z,4.10
2022-08-05T06:55:04.547Z,3.63
2022-08-05T07:00:06.960Z,4.18
2022-08-05T07:05:15.366Z,3.13
2022-08-05T07:10:20.942Z,3.90
2022-08-05T07:16:01.965Z,3.75
2022-08-05T07:21:04.639Z,4.32
2022-08-05T07:26:07.306Z,3.47
2022-08-05T07:31:08.964Z,4.28
2022-08-05T07:36:21.507Z,4.13
2022-08-05T07:42:13.712Z,4.43
2022-08-05T07:46:49.376Z,5.30
2022-08-05T07:51:54.344Z,4.45
2022-08-05T07:57:02.072Z,5.15
2022-08-05T08:02:26.848Z,4.40
2022-08-05T08:07:39.737Z,5.07
2022-08-05T08:12:55.108Z,4.70
2022-08-05T08:18:01.960Z,5.53
2022-08-05T08:23:04.684Z,4.80
2022-08-05T08:28:06.357Z,4.63
2022-08-05T08:33:19.899Z,4.30
2022-08-05T08:38:35.987Z,4.47
2022-08-05T08:45:17.127Z,3.60
2022-08-05T08:50:22.533Z,3.75
2022-08-05T08:54:27.685Z,4.53
2022-08-05T08:59:33.665Z,4.22
2022-08-05T09:04:58.621Z,5.05
2022-08-05T09:09:59.450Z,3.70
2022-08-05T09:15:06.517Z,3.40
2022-08-05T09:20:09.375Z,3.97
2022-08-05T09:25:13.466Z,4.32
2022-08-05T09:30:17.119Z,3.55
2022-08-05T09:35:27.371Z,4.65
2022-08-05T09:40:33.647Z,3.80
2022-08-05T09:46:06.960Z,8.40
2022-08-05T09:51:15.231Z,4.15
2022-08-05T09:56:29.845Z,3.65
2022-08-05T10:01:36.901Z,3.50
2022-08-05T10:06:59.232Z,5.43
2022-08-05T10:12:30.833Z,6.68
2022-08-05T10:17:37.613Z,3.65
2022-08-05T10:22:50.743Z,4.13
2022-08-05T10:28:13.104Z,4.07
2022-08-05T10:33:15.713Z,4.00
2022-08-05T10:38:21.128Z,4.05
2022-08-05T10:43:45.839Z,4.40
2022-08-05T10:49:01.462Z,4.35
2022-08-05T10:54:28.459Z,4.00
2022-08-05T11:00:03.740Z,4.32
2022-08-05T11:04:55.298Z,3.92
2022-08-05T11:10:04.142Z,4.38
2022-08-05T11:16:00.755Z,3.70
2022-08-05T11:20:51.040Z,4.10
2022-08-05T11:26:12.033Z,3.72
2022-08-05T11:31:19.525Z,3.95
2022-08-05T11:36:52.891Z,3.90
2022-08-05T11:42:02.430Z,3.55
2022-08-05T11:47:11.170Z,3.78
2022-08-05T11:52:29.204Z,3.67
2022-08-05T11:58:08.557Z,3.45
2022-08-05T12:02:53.772Z,3.40
2022-08-05T12:08:08.073Z,3.83
2022-08-05T12:13:16.890Z,2.97
2022-08-05T12:18:34.657Z,4.25
2022-08-05T12:23:51.217Z,2.80
2022-08-05T12:28:52.873Z,2.67
2022-08-05T12:33:58.273Z,3.00
2022-08-05T12:39:00.691Z,3.50
2022-08-05T12:44:05.872Z,3.25
2022-08-05T12:49:14.953Z,3.22
2022-08-05T12:54:32.326Z,2.58
2022-08-05T13:00:08.703Z,2.55
2022-08-05T13:05:08.403Z,3.05
2022-08-05T13:10:19.531Z,3.20
2022-08-05T13:15:24.478Z,2.15
2022-08-05T13:20:40.366Z,2.50
2022-08-05T13:25:51.754Z,2.92
2022-08-05T13:31:10.993Z,2.63
2022-08-05T13:36:16.492Z,3.20
2022-08-05T13:41:18.197Z,2.40
2022-08-05T13:46:30.758Z,3.20
2022-08-05T13:51:46.286Z,2.75
2022-08-05T13:56:50.833Z,2.90
2022-08-05T14:02:00.092Z,2.53
2022-08-05T14:07:26.514Z,2.72
2022-08-05T14:12:32.274Z,2.60
2022-08-05T14:17:35.307Z,2.80
2022-08-05T14:22:37.262Z,3.08
2022-08-05T14:27:40.270Z,2.67
2022-08-05T14:32:49.165Z,3.20
2022-08-05T14:37:55.438Z,3.75
2022-08-05T14:42:57.359Z,3.33
2022-08-05T14:48:02.890Z,2.65
2022-08-05T14:53:06.359Z,2.60
2022-08-05T14:58:10.888Z,1.98
2022-08-05T15:03:13.963Z,2.10
2022-08-05T15:08:17.892Z,2.03
2022-08-05T15:13:46.481Z,2.40
2022-08-05T15:18:52.075Z,2.42
2022-08-05T15:23:54.431Z,2.72
2022-08-05T15:28:56.074Z,2.58
2022-08-05T15:34:18.634Z,2.50
2022-08-05T15:40:59.226Z,2.70
2022-08-05T15:44:41.795Z,2.22
2022-08-05T15:49:56.560Z,2.40
2022-08-05T15:55:00.675Z,2.88
2022-08-05T16:00:08.066Z,3.03
2022-08-05T16:05:09.847Z,2.97
2022-08-05T16:10:13.033Z,2.97
2022-08-05T16:15:18.656Z,2.95
2022-08-05T16:20:20.554Z,2.92
2022-08-05T16:25:22.238Z,2.83
2022-08-05T16:30:36.313Z,3.08
2022-08-05T16:35:42.296Z,2.90
2022-08-05T16:40:51.721Z,2.88
2022-08-05T16:46:04.466Z,3.00
2022-08-05T16:51:10.776Z,3.55
2022-08-05T16:56:12.715Z,3.03
2022-08-05T17:01:14.498Z,3.47
2022-08-05T17:06:16.601Z,2.83
2022-08-05T17:11:18.590Z,3.30
2022-08-05T17:16:37.090Z,3.53
2022-08-05T17:21:39.566Z,3.50
2022-08-05T17:26:41.772Z,3.65
2022-08-05T17:31:57.335Z,2.63
2022-08-05T17:37:00.778Z,2.03
2022-08-05T17:42:28.612Z,1.83
2022-08-05T17:47:24.476Z,3.65
2022-08-05T17:52:26.443Z,3.67
2022-08-05T17:57:28.537Z,3.95
2022-08-05T18:02:30.255Z,4.30
2022-08-05T18:07:41.313Z,3.00
2022-08-05T18:12:44.015Z,3.53
2022-08-05T18:17:59.160Z,2.83
2022-08-05T18:23:09.001Z,3.58
2022-08-05T18:28:16.381Z,3.70
2022-08-05T18:33:22.665Z,4.60
2022-08-05T18:38:26.051Z,4.40
2022-08-05T18:43:27.967Z,4.18
2022-08-05T18:48:33.740Z,6.68
2022-08-05T18:53:43.181Z,8.95
2022-08-05T18:58:54.954Z,6.40
2022-08-05T19:04:03.085Z,6.40
2022-08-05T19:09:07.279Z,5.93
2022-08-05T19:14:44.807Z,6.18
2022-08-05T19:19:30.703Z,6.88
2022-08-05T19:24:34.609Z,6.97
2022-08-05T19:29:37.432Z,7.55
2022-08-05T19:34:40.715Z,6.70
2022-08-05T19:39:45.820Z,8.40
2022-08-05T19:44:53.621Z,7.32
2022-08-05T19:50:00.903Z,8.00
2022-08-05T19:55:07.019Z,7.63
2022-08-05T20:00:24.972Z,5.88
2022-08-05T20:05:27.458Z,4.53
2022-08-05T20:10:45.105Z,5.07
2022-08-05T20:15:56.831Z,3.88
2022-08-05T20:21:00.052Z,2.80
2022-08-05T20:26:03.621Z,2.80
2022-08-05T20:31:07.385Z,2.58
2022-08-05T20:36:10.060Z,2.38
2022-08-05T20:41:23.725Z,1.90
2022-08-05T20:46:28.329Z,1.73
2022-08-05T20:51:29.983Z,1.25
2022-08-05T20:56:42.323Z,1.25
2022-08-05T21:01:45.010Z,1.55
2022-08-05T21:06:46.805Z,1.10
2022-08-05T21:12:06.884Z,1.70
2022-08-05T21:17:10.554Z,1.02
2022-08-05T21:22:12.213Z,1.13
2022-08-05T21:27:16.636Z,1.38
2022-08-05T21:32:20.109Z,1.35
2022-08-05T21:37:22.051Z,2.40
2022-08-05T21:42:41.099Z,1.23
2022-08-05T21:47:56.572Z,1.40
2022-08-05T21:53:04.728Z,1.35
2022-08-05T21:58:19.526Z,1.45
2022-08-05T22:03:48.494Z,1.20
2022-08-05T22:08:42.982Z,1.13
2022-08-05T22:14:06.627Z,1.98
2022-08-05T22:19:56.374Z,1.23
2022-08-05T22:24:52.470Z,1.15
2022-08-05T22:29:55.166Z,1.17
2022-08-05T22:34:56.851Z,1.55
2022-08-05T22:39:58.661Z,1.08
2022-08-05T22:45:00.570Z,1.20
2022-08-05T22:50:20.522Z,1.55
2022-08-05T22:55:24.691Z,1.40
2022-08-05T23:00:28.291Z,1.98
2022-08-05T23:05:35.894Z,1.80
2022-08-05T23:10:38.190Z,1.38
2022-08-05T23:15:40.633Z,1.73
2022-08-05T23:20:43.189Z,2.00
2022-08-05T23:25:53.571Z,1.58
2022-08-05T23:31:02.293Z,1.33
2022-08-05T23:36:17.664Z,1.92
2022-08-05T23:41:19.553Z,1.88
2022-08-05T23:46:22.206Z,1.80
2022-08-05T23:51:23.975Z,1.95
2022-08-05T23:56:27.391Z,1.98
